Metar Aviation Weather Data ENHD Haugesund

3°C Temp
-3°C Dewpoint
65% Humidity
Temperature
26 KM/H
16 MPH
14 KTS
130°
South East

Wind Speed
Clear
Conditions
Pressure 1030 (hPa) - 30.41 (in)
Visibility 6.2 (mi) - 10 (km)

Current Conditions
ENHD
Haugesund
Metar :ENHD 141720Z 13014KT CAVOK 03/M03 Q1030
Fri 14th December 19:20 pm

Haugesund
  Metar Aviation API Data Provided by https://www.checkwx.com/ PHP scripts by weather34.com ©2018